sensor_id;sensor_type;location;lat;lon;timestamp;temperature;humidity
780;DHT22;373;49.342;8.146;2024-01-06T00:01:10;7.20;99.90
780;DHT22;373;49.342;8.146;2024-01-06T00:03:38;7.00;99.90
780;DHT22;373;49.342;8.146;2024-01-06T00:06:06;7.20;99.90
780;DHT22;373;49.342;8.146;2024-01-06T00:08:34;7.00;99.90
780;DHT22;373;49.342;8.146;2024-01-06T00:11:01;6.90;99.90
780;DHT22;373;49.342;8.146;2024-01-06T00:13:29;6.60;1.00
780;DHT22;373;49.342;8.146;2024-01-06T00:15:56;6.50;1.00
780;DHT22;373;49.342;8.146;2024-01-06T00:18:24;6.40;1.00
780;DHT22;373;49.342;8.146;2024-01-06T00:20:51;6.40;1.00
780;DHT22;373;49.342;8.146;2024-01-06T00:23:18;6.40;1.00
780;DHT22;373;49.342;8.146;2024-01-06T00:25:47;6.40;1.00
780;DHT22;373;49.342;8.146;2024-01-06T00:28:14;6.20;1.00
780;DHT22;373;49.342;8.146;2024-01-06T00:30:41;6.40;1.00
780;DHT22;373;49.342;8.146;2024-01-06T00:33:08;6.30;1.00
780;DHT22;373;49.342;8.146;2024-01-06T00:35:35;6.40;1.00
780;DHT22;373;49.342;8.146;2024-01-06T00:38:02;6.50;1.00
780;DHT22;373;49.342;8.146;2024-01-06T00:40:29;6.60;1.00
780;DHT22;373;49.342;8.146;2024-01-06T00:42:59;6.60;1.00
780;DHT22;373;49.342;8.146;2024-01-06T00:45:26;6.30;1.00
780;DHT22;373;49.342;8.146;2024-01-06T00:47:53;6.10;1.00
780;DHT22;373;49.342;8.146;2024-01-06T00:50:20;5.80;1.00
780;DHT22;373;49.342;8.146;2024-01-06T00:52:47;6.00;1.00
780;DHT22;373;49.342;8.146;2024-01-06T00:55:18;6.00;1.00
780;DHT22;373;49.342;8.146;2024-01-06T00:57:45;5.80;1.00
780;DHT22;373;49.342;8.146;2024-01-06T01:00:14;5.80;1.00
780;DHT22;373;49.342;8.146;2024-01-06T01:02:41;5.70;1.00
780;DHT22;373;49.342;8.146;2024-01-06T01:05:08;5.80;1.00
780;DHT22;373;49.342;8.146;2024-01-06T01:07:35;5.60;1.00
780;DHT22;373;49.342;8.146;2024-01-06T01:10:03;5.50;10.70
780;DHT22;373;49.342;8.146;2024-01-06T01:12:30;5.50;15.90
780;DHT22;373;49.342;8.146;2024-01-06T01:14:57;5.60;42.60
780;DHT22;373;49.342;8.146;2024-01-06T01:17:25;5.70;55.60
780;DHT22;373;49.342;8.146;2024-01-06T01:19:52;5.60;13.10
780;DHT22;373;49.342;8.146;2024-01-06T01:22:20;5.80;30.80
780;DHT22;373;49.342;8.146;2024-01-06T01:24:47;6.20;1.00
780;DHT22;373;49.342;8.146;2024-01-06T01:27:14;6.20;1.00
780;DHT22;373;49.342;8.146;2024-01-06T01:29:41;6.20;1.00
780;DHT22;373;49.342;8.146;2024-01-06T01:32:08;6.00;1.00
780;DHT22;373;49.342;8.146;2024-01-06T01:34:36;5.90;1.00
780;DHT22;373;49.342;8.146;2024-01-06T01:37:03;5.90;1.50
780;DHT22;373;49.342;8.146;2024-01-06T01:39:30;6.10;1.00
780;DHT22;373;49.342;8.146;2024-01-06T01:41:57;6.00;1.00
780;DHT22;373;49.342;8.146;2024-01-06T01:44:24;5.80;1.00
780;DHT22;373;49.342;8.146;2024-01-06T01:46:51;5.80;17.00
780;DHT22;373;49.342;8.146;2024-01-06T01:49:19;5.90;13.50
780;DHT22;373;49.342;8.146;2024-01-06T01:51:48;6.10;21.70
780;DHT22;373;49.342;8.146;2024-01-06T01:54:15;6.20;1.00
780;DHT22;373;49.342;8.146;2024-01-06T01:56:43;6.20;1.00
780;DHT22;373;49.342;8.146;2024-01-06T01:59:11;6.00;1.00
780;DHT22;373;49.342;8.146;2024-01-06T02:01:39;6.00;1.00
780;DHT22;373;49.342;8.146;2024-01-06T02:04:07;6.20;1.00
780;DHT22;373;49.342;8.146;2024-01-06T02:06:35;6.20;1.00
780;DHT22;373;49.342;8.146;2024-01-06T02:09:03;6.20;1.00
780;DHT22;373;49.342;8.146;2024-01-06T02:11:31;6.30;1.00
780;DHT22;373;49.342;8.146;2024-01-06T02:13:58;6.30;1.00
780;DHT22;373;49.342;8.146;2024-01-06T02:16:26;6.30;1.00
780;DHT22;373;49.342;8.146;2024-01-06T02:18:53;6.30;1.00
780;DHT22;373;49.342;8.146;2024-01-06T02:21:21;6.40;1.00
780;DHT22;373;49.342;8.146;2024-01-06T02:23:50;6.50;1.00
780;DHT22;373;49.342;8.146;2024-01-06T02:26:17;6.70;1.00
780;DHT22;373;49.342;8.146;2024-01-06T02:28:44;6.60;1.00
780;DHT22;373;49.342;8.146;2024-01-06T02:31:13;6.60;1.00
780;DHT22;373;49.342;8.146;2024-01-06T02:33:40;6.60;1.00
780;DHT22;373;49.342;8.146;2024-01-06T02:36:07;6.60;1.00
780;DHT22;373;49.342;8.146;2024-01-06T02:38:35;6.60;1.00
780;DHT22;373;49.342;8.146;2024-01-06T02:41:03;6.80;99.90
780;DHT22;373;49.342;8.146;2024-01-06T02:43:30;6.90;99.90
780;DHT22;373;49.342;8.146;2024-01-06T02:45:57;6.90;99.90
780;DHT22;373;49.342;8.146;2024-01-06T02:48:24;6.90;99.90
780;DHT22;373;49.342;8.146;2024-01-06T02:50:51;7.10;1.00
780;DHT22;373;49.342;8.146;2024-01-06T02:53:18;7.00;1.00
780;DHT22;373;49.342;8.146;2024-01-06T02:55:45;6.90;1.00
780;DHT22;373;49.342;8.146;2024-01-06T02:58:14;7.00;99.90
780;DHT22;373;49.342;8.146;2024-01-06T03:00:41;7.00;4.20
780;DHT22;373;49.342;8.146;2024-01-06T03:03:08;7.30;99.90
780;DHT22;373;49.342;8.146;2024-01-06T03:05:35;7.60;99.90
780;DHT22;373;49.342;8.146;2024-01-06T03:08:03;7.50;19.70
780;DHT22;373;49.342;8.146;2024-01-06T03:10:30;7.70;14.30
780;DHT22;373;49.342;8.146;2024-01-06T03:12:57;7.70;1.00
780;DHT22;373;49.342;8.146;2024-01-06T03:15:26;7.60;99.90
780;DHT22;373;49.342;8.146;2024-01-06T03:17:53;7.20;99.90
780;DHT22;373;49.342;8.146;2024-01-06T03:20:20;7.00;1.00
780;DHT22;373;49.342;8.146;2024-01-06T03:22:47;7.00;21.00
780;DHT22;373;49.342;8.146;2024-01-06T03:25:15;6.80;99.90
780;DHT22;373;49.342;8.146;2024-01-06T03:27:42;6.80;99.90
780;DHT22;373;49.342;8.146;2024-01-06T03:30:10;6.80;99.90
780;DHT22;373;49.342;8.146;2024-01-06T03:32:39;6.70;99.90
780;DHT22;373;49.342;8.146;2024-01-06T03:35:06;6.40;1.00
780;DHT22;373;49.342;8.146;2024-01-06T03:37:33;6.20;1.00
780;DHT22;373;49.342;8.146;2024-01-06T03:40:00;6.10;1.00
780;DHT22;373;49.342;8.146;2024-01-06T03:42:28;6.00;1.00
780;DHT22;373;49.342;8.146;2024-01-06T03:44:55;6.00;1.00
780;DHT22;373;49.342;8.146;2024-01-06T03:47:22;6.20;1.00
780;DHT22;373;49.342;8.146;2024-01-06T03:49:50;6.20;1.00
780;DHT22;373;49.342;8.146;2024-01-06T03:52:17;6.20;1.00
780;DHT22;373;49.342;8.146;2024-01-06T03:54:45;6.30;1.00
780;DHT22;373;49.342;8.146;2024-01-06T03:57:12;6.40;1.00
780;DHT22;373;49.342;8.146;2024-01-06T03:59:39;6.70;1.00
780;DHT22;373;49.342;8.146;2024-01-06T04:02:06;6.90;1.00
780;DHT22;373;49.342;8.146;2024-01-06T04:04:33;6.80;1.00
780;DHT22;373;49.342;8.146;2024-01-06T04:07:01;6.90;1.00
780;DHT22;373;49.342;8.146;2024-01-06T04:09:28;7.10;1.00
780;DHT22;373;49.342;8.146;2024-01-06T04:11:55;7.10;1.00
780;DHT22;373;49.342;8.146;2024-01-06T04:14:23;7.20;1.00
780;DHT22;373;49.342;8.146;2024-01-06T04:16:50;7.30;1.00
780;DHT22;373;49.342;8.146;2024-01-06T04:19:18;7.30;1.00
780;DHT22;373;49.342;8.146;2024-01-06T04:21:46;7.40;1.00
780;DHT22;373;49.342;8.146;2024-01-06T04:24:15;7.40;1.00
780;DHT22;373;49.342;8.146;2024-01-06T04:26:42;7.30;1.00
780;DHT22;373;49.342;8.146;2024-01-06T04:29:10;7.40;1.00
780;DHT22;373;49.342;8.146;2024-01-06T04:31:38;7.60;1.00
780;DHT22;373;49.342;8.146;2024-01-06T04:34:05;7.70;99.90
780;DHT22;373;49.342;8.146;2024-01-06T04:36:32;7.50;1.00
780;DHT22;373;49.342;8.146;2024-01-06T04:39:00;7.60;99.90
780;DHT22;373;49.342;8.146;2024-01-06T04:41:28;7.60;99.90
780;DHT22;373;49.342;8.146;2024-01-06T04:43:55;7.40;99.90
780;DHT22;373;49.342;8.146;2024-01-06T04:46:22;7.30;99.90
780;DHT22;373;49.342;8.146;2024-01-06T04:48:50;7.20;1.00
780;DHT22;373;49.342;8.146;2024-01-06T04:51:17;7.10;1.00
780;DHT22;373;49.342;8.146;2024-01-06T04:53:44;7.20;1.00
780;DHT22;373;49.342;8.146;2024-01-06T04:56:11;7.20;1.00
780;DHT22;373;49.342;8.146;2024-01-06T04:58:40;7.00;1.00
780;DHT22;373;49.342;8.146;2024-01-06T05:01:07;6.80;1.00
780;DHT22;373;49.342;8.146;2024-01-06T05:03:34;6.90;1.00
780;DHT22;373;49.342;8.146;2024-01-06T05:06:02;6.90;1.00
780;DHT22;373;49.342;8.146;2024-01-06T05:08:29;7.00;1.00
780;DHT22;373;49.342;8.146;2024-01-06T05:10:57;6.70;1.00
780;DHT22;373;49.342;8.146;2024-01-06T05:13:24;6.70;1.00
780;DHT22;373;49.342;8.146;2024-01-06T05:15:53;6.70;1.00
780;DHT22;373;49.342;8.146;2024-01-06T05:18:20;6.80;1.00
780;DHT22;373;49.342;8.146;2024-01-06T05:20:47;6.80;1.00
780;DHT22;373;49.342;8.146;2024-01-06T05:23:15;6.80;1.00
780;DHT22;373;49.342;8.146;2024-01-06T05:25:42;6.90;1.00
780;DHT22;373;49.342;8.146;2024-01-06T05:28:09;7.00;1.00
780;DHT22;373;49.342;8.146;2024-01-06T05:30:36;6.90;1.00
780;DHT22;373;49.342;8.146;2024-01-06T05:33:05;6.90;1.00
780;DHT22;373;49.342;8.146;2024-01-06T05:35:32;7.10;1.00
780;DHT22;373;49.342;8.146;2024-01-06T05:38:00;7.10;1.00
780;DHT22;373;49.342;8.146;2024-01-06T05:40:27;7.10;1.00
780;DHT22;373;49.342;8.146;2024-01-06T05:42:54;7.00;1.00
780;DHT22;373;49.342;8.146;2024-01-06T05:45:22;6.90;1.00
780;DHT22;373;49.342;8.146;2024-01-06T05:47:49;6.90;1.00
780;DHT22;373;49.342;8.146;2024-01-06T05:50:18;7.00;1.00
780;DHT22;373;49.342;8.146;2024-01-06T05:52:45;6.90;1.00
780;DHT22;373;49.342;8.146;2024-01-06T05:55:13;6.70;1.00
780;DHT22;373;49.342;8.146;2024-01-06T05:57:40;6.60;1.00
780;DHT22;373;49.342;8.146;2024-01-06T06:00:08;6.80;1.00
780;DHT22;373;49.342;8.146;2024-01-06T06:02:38;6.70;1.00
780;DHT22;373;49.342;8.146;2024-01-06T06:05:06;6.90;1.00
780;DHT22;373;49.342;8.146;2024-01-06T06:07:34;6.90;1.00
780;DHT22;373;49.342;8.146;2024-01-06T06:10:06;7.00;1.00
780;DHT22;373;49.342;8.146;2024-01-06T06:12:34;7.10;1.00
780;DHT22;373;49.342;8.146;2024-01-06T06:15:01;7.30;1.00
780;DHT22;373;49.342;8.146;2024-01-06T06:17:29;7.30;1.00
780;DHT22;373;49.342;8.146;2024-01-06T06:19:56;7.00;1.00
780;DHT22;373;49.342;8.146;2024-01-06T06:22:24;6.90;1.00
780;DHT22;373;49.342;8.146;2024-01-06T06:24:54;6.90;1.00
780;DHT22;373;49.342;8.146;2024-01-06T06:27:21;7.00;1.00
780;DHT22;373;49.342;8.146;2024-01-06T06:29:48;6.90;1.00
780;DHT22;373;49.342;8.146;2024-01-06T06:32:15;7.00;1.00
780;DHT22;373;49.342;8.146;2024-01-06T06:34:43;6.90;1.00
780;DHT22;373;49.342;8.146;2024-01-06T06:37:10;6.90;1.00
780;DHT22;373;49.342;8.146;2024-01-06T06:39:37;6.70;1.00
780;DHT22;373;49.342;8.146;2024-01-06T06:42:05;6.70;1.00
780;DHT22;373;49.342;8.146;2024-01-06T06:44:33;6.70;1.00
780;DHT22;373;49.342;8.146;2024-01-06T06:47:00;6.70;1.00
780;DHT22;373;49.342;8.146;2024-01-06T06:49:26;6.60;1.60
780;DHT22;373;49.342;8.146;2024-01-06T06:51:53;6.70;7.60
780;DHT22;373;49.342;8.146;2024-01-06T06:54:21;6.60;14.00
780;DHT22;373;49.342;8.146;2024-01-06T06:56:49;6.50;13.80
780;DHT22;373;49.342;8.146;2024-01-06T06:59:17;6.80;3.30
780;DHT22;373;49.342;8.146;2024-01-06T07:01:44;6.70;6.30
780;DHT22;373;49.342;8.146;2024-01-06T07:04:11;6.70;5.20
780;DHT22;373;49.342;8.146;2024-01-06T07:06:38;7.00;1.30
780;DHT22;373;49.342;8.146;2024-01-06T07:09:05;7.10;1.00
780;DHT22;373;49.342;8.146;2024-01-06T07:11:32;7.10;1.00
780;DHT22;373;49.342;8.146;2024-01-06T07:13:59;7.10;1.00
780;DHT22;373;49.342;8.146;2024-01-06T07:16:28;7.20;1.00
780;DHT22;373;49.342;8.146;2024-01-06T07:18:55;7.00;1.00
780;DHT22;373;49.342;8.146;2024-01-06T07:21:22;7.10;1.00
780;DHT22;373;49.342;8.146;2024-01-06T07:23:49;7.30;1.00
780;DHT22;373;49.342;8.146;2024-01-06T07:26:16;7.50;1.00
780;DHT22;373;49.342;8.146;2024-01-06T07:28:43;7.70;1.00
780;DHT22;373;49.342;8.146;2024-01-06T07:31:10;7.70;1.00
780;DHT22;373;49.342;8.146;2024-01-06T07:33:38;7.30;1.00
780;DHT22;373;49.342;8.146;2024-01-06T07:36:06;7.40;1.00
780;DHT22;373;49.342;8.146;2024-01-06T07:38:33;7.30;1.00
780;DHT22;373;49.342;8.146;2024-01-06T07:41:00;7.20;1.00
780;DHT22;373;49.342;8.146;2024-01-06T07:43:27;7.10;1.00
780;DHT22;373;49.342;8.146;2024-01-06T07:45:54;7.10;1.00
780;DHT22;373;49.342;8.146;2024-01-06T07:48:22;7.20;1.00
780;DHT22;373;49.342;8.146;2024-01-06T07:50:51;7.30;1.00
780;DHT22;373;49.342;8.146;2024-01-06T07:53:18;7.60;1.00
780;DHT22;373;49.342;8.146;2024-01-06T07:55:46;7.60;1.00
780;DHT22;373;49.342;8.146;2024-01-06T07:58:13;7.60;1.00
780;DHT22;373;49.342;8.146;2024-01-06T08:00:40;7.50;1.00
780;DHT22;373;49.342;8.146;2024-01-06T08:03:07;7.40;1.00
780;DHT22;373;49.342;8.146;2024-01-06T08:05:34;7.50;1.00
780;DHT22;373;49.342;8.146;2024-01-06T08:08:03;7.70;1.00
780;DHT22;373;49.342;8.146;2024-01-06T08:10:30;7.70;1.00
780;DHT22;373;49.342;8.146;2024-01-06T08:12:58;7.70;1.00
780;DHT22;373;49.342;8.146;2024-01-06T08:15:25;7.60;1.00
780;DHT22;373;49.342;8.146;2024-01-06T08:17:52;7.60;1.00
780;DHT22;373;49.342;8.146;2024-01-06T08:20:19;7.60;1.00
780;DHT22;373;49.342;8.146;2024-01-06T08:22:46;7.50;1.00
780;DHT22;373;49.342;8.146;2024-01-06T08:25:15;7.50;1.00
780;DHT22;373;49.342;8.146;2024-01-06T08:27:43;7.30;1.00
780;DHT22;373;49.342;8.146;2024-01-06T08:30:10;7.30;18.10
780;DHT22;373;49.342;8.146;2024-01-06T08:32:38;7.40;1.00
780;DHT22;373;49.342;8.146;2024-01-06T08:35:06;7.30;18.10
780;DHT22;373;49.342;8.146;2024-01-06T08:37:33;7.20;21.30
780;DHT22;373;49.342;8.146;2024-01-06T08:40:00;7.00;34.10
780;DHT22;373;49.342;8.146;2024-01-06T08:42:30;7.20;70.90
780;DHT22;373;49.342;8.146;2024-01-06T08:44:57;7.10;46.40
780;DHT22;373;49.342;8.146;2024-01-06T08:47:24;7.00;77.00
780;DHT22;373;49.342;8.146;2024-01-06T08:49:51;7.00;87.40
780;DHT22;373;49.342;8.146;2024-01-06T08:52:18;7.10;99.90
780;DHT22;373;49.342;8.146;2024-01-06T08:54:45;7.00;92.50
780;DHT22;373;49.342;8.146;2024-01-06T08:57:12;7.20;95.20
780;DHT22;373;49.342;8.146;2024-01-06T08:59:41;7.10;76.20
780;DHT22;373;49.342;8.146;2024-01-06T09:02:08;7.00;72.80
780;DHT22;373;49.342;8.146;2024-01-06T09:04:35;7.20;93.90
780;DHT22;373;49.342;8.146;2024-01-06T09:07:02;7.30;58.30
780;DHT22;373;49.342;8.146;2024-01-06T09:09:31;7.50;49.30
780;DHT22;373;49.342;8.146;2024-01-06T09:12:01;7.50;4.40
780;DHT22;373;49.342;8.146;2024-01-06T09:14:28;7.60;1.00
780;DHT22;373;49.342;8.146;2024-01-06T09:16:57;7.60;22.30
780;DHT22;373;49.342;8.146;2024-01-06T09:19:24;7.80;47.00
780;DHT22;373;49.342;8.146;2024-01-06T09:21:53;7.60;1.00
780;DHT22;373;49.342;8.146;2024-01-06T09:24:21;7.60;1.00
780;DHT22;373;49.342;8.146;2024-01-06T09:26:48;7.70;1.00
780;DHT22;373;49.342;8.146;2024-01-06T09:29:16;7.80;1.00
780;DHT22;373;49.342;8.146;2024-01-06T09:31:43;7.80;1.00
780;DHT22;373;49.342;8.146;2024-01-06T09:34:12;7.70;1.00
780;DHT22;373;49.342;8.146;2024-01-06T09:36:39;7.60;1.00
780;DHT22;373;49.342;8.146;2024-01-06T09:39:06;7.50;21.80
780;DHT22;373;49.342;8.146;2024-01-06T09:41:34;7.70;20.70
780;DHT22;373;49.342;8.146;2024-01-06T09:44:01;7.50;1.00
780;DHT22;373;49.342;8.146;2024-01-06T09:46:28;7.60;26.60
780;DHT22;373;49.342;8.146;2024-01-06T09:48:56;7.90;26.20
780;DHT22;373;49.342;8.146;2024-01-06T09:51:25;7.90;1.00
780;DHT22;373;49.342;8.146;2024-01-06T09:53:57;7.90;1.00
780;DHT22;373;49.342;8.146;2024-01-06T09:56:25;8.20;1.00
780;DHT22;373;49.342;8.146;2024-01-06T09:58:52;8.00;1.00
780;DHT22;373;49.342;8.146;2024-01-06T10:01:20;7.90;1.00
780;DHT22;373;49.342;8.146;2024-01-06T10:03:47;7.80;1.00
780;DHT22;373;49.342;8.146;2024-01-06T10:06:15;7.90;1.00
780;DHT22;373;49.342;8.146;2024-01-06T10:08:44;7.80;1.00
780;DHT22;373;49.342;8.146;2024-01-06T10:11:14;7.70;1.00
780;DHT22;373;49.342;8.146;2024-01-06T10:13:41;7.70;17.10
780;DHT22;373;49.342;8.146;2024-01-06T10:16:08;7.50;20.80
780;DHT22;373;49.342;8.146;2024-01-06T10:18:35;7.30;70.00
780;DHT22;373;49.342;8.146;2024-01-06T10:21:03;7.40;85.70
780;DHT22;373;49.342;8.146;2024-01-06T10:23:31;7.50;99.90
780;DHT22;373;49.342;8.146;2024-01-06T10:26:00;7.40;97.50
780;DHT22;373;49.342;8.146;2024-01-06T10:28:27;7.40;97.40
780;DHT22;373;49.342;8.146;2024-01-06T10:30:55;7.30;99.90
780;DHT22;373;49.342;8.146;2024-01-06T10:33:23;7.30;99.90
780;DHT22;373;49.342;8.146;2024-01-06T10:35:50;7.50;99.90
780;DHT22;373;49.342;8.146;2024-01-06T10:38:17;7.50;99.90
780;DHT22;373;49.342;8.146;2024-01-06T10:41:01;7.50;99.90
780;DHT22;373;49.342;8.146;2024-01-06T10:43:33;7.50;99.90
780;DHT22;373;49.342;8.146;2024-01-06T10:46:03;7.80;99.90
780;DHT22;373;49.342;8.146;2024-01-06T10:48:32;7.90;58.00
780;DHT22;373;49.342;8.146;2024-01-06T10:50:59;8.00;83.80
780;DHT22;373;49.342;8.146;2024-01-06T10:53:28;8.20;14.30
780;DHT22;373;49.342;8.146;2024-01-06T10:55:57;8.20;3.10
780;DHT22;373;49.342;8.146;2024-01-06T10:58:26;8.10;22.90
780;DHT22;373;49.342;8.146;2024-01-06T11:00:56;8.20;27.80
780;DHT22;373;49.342;8.146;2024-01-06T11:03:24;8.10;32.60
780;DHT22;373;49.342;8.146;2024-01-06T11:05:51;7.90;13.00
780;DHT22;373;49.342;8.146;2024-01-06T11:08:19;7.90;14.40
780;DHT22;373;49.342;8.146;2024-01-06T11:10:48;7.90;20.90
780;DHT22;373;49.342;8.146;2024-01-06T11:13:20;7.70;56.80
780;DHT22;373;49.342;8.146;2024-01-06T11:15:50;7.80;46.00
780;DHT22;373;49.342;8.146;2024-01-06T11:18:34;7.90;34.50
780;DHT22;373;49.342;8.146;2024-01-06T11:21:17;7.70;58.90
780;DHT22;373;49.342;8.146;2024-01-06T11:23:45;7.80;90.90
780;DHT22;373;49.342;8.146;2024-01-06T11:26:13;7.70;55.70
780;DHT22;373;49.342;8.146;2024-01-06T11:28:44;7.80;52.90
780;DHT22;373;49.342;8.146;2024-01-06T11:31:13;7.80;29.00
780;DHT22;373;49.342;8.146;2024-01-06T11:33:41;7.70;44.20
780;DHT22;373;49.342;8.146;2024-01-06T11:36:09;7.80;41.70
780;DHT22;373;49.342;8.146;2024-01-06T11:38:38;7.80;28.20
780;DHT22;373;49.342;8.146;2024-01-06T11:41:06;7.90;34.00
780;DHT22;373;49.342;8.146;2024-01-06T11:43:34;7.90;32.00
780;DHT22;373;49.342;8.146;2024-01-06T11:46:02;7.90;12.70
780;DHT22;373;49.342;8.146;2024-01-06T11:48:34;8.10;9.60
780;DHT22;373;49.342;8.146;2024-01-06T11:51:03;8.20;1.00
780;DHT22;373;49.342;8.146;2024-01-06T11:53:31;8.30;1.00
780;DHT22;373;49.342;8.146;2024-01-06T11:55:59;8.20;1.00
780;DHT22;373;49.342;8.146;2024-01-06T11:58:27;8.20;1.00
780;DHT22;373;49.342;8.146;2024-01-06T12:00:56;8.20;1.00
780;DHT22;373;49.342;8.146;2024-01-06T12:03:23;8.30;1.00
780;DHT22;373;49.342;8.146;2024-01-06T12:06:03;8.30;1.00
780;DHT22;373;49.342;8.146;2024-01-06T12:08:31;8.10;1.00
780;DHT22;373;49.342;8.146;2024-01-06T12:11:03;8.30;1.00
780;DHT22;373;49.342;8.146;2024-01-06T12:13:31;8.50;1.00
780;DHT22;373;49.342;8.146;2024-01-06T12:15:58;8.60;1.00
780;DHT22;373;49.342;8.146;2024-01-06T12:18:26;8.70;1.00
780;DHT22;373;49.342;8.146;2024-01-06T12:20:54;8.70;1.00
780;DHT22;373;49.342;8.146;2024-01-06T12:23:26;8.80;1.00
780;DHT22;373;49.342;8.146;2024-01-06T12:25:53;8.70;1.00
780;DHT22;373;49.342;8.146;2024-01-06T12:28:20;8.70;1.00
780;DHT22;373;49.342;8.146;2024-01-06T12:30:47;8.70;1.00
780;DHT22;373;49.342;8.146;2024-01-06T12:33:14;8.80;1.00
780;DHT22;373;49.342;8.146;2024-01-06T12:35:41;8.90;1.00
780;DHT22;373;49.342;8.146;2024-01-06T12:38:09;9.00;1.00
780;DHT22;373;49.342;8.146;2024-01-06T12:40:37;8.90;1.00
780;DHT22;373;49.342;8.146;2024-01-06T12:43:05;8.80;1.00
780;DHT22;373;49.342;8.146;2024-01-06T12:45:32;8.90;1.00
780;DHT22;373;49.342;8.146;2024-01-06T12:47:59;8.90;1.00
780;DHT22;373;49.342;8.146;2024-01-06T12:50:26;9.00;1.00
780;DHT22;373;49.342;8.146;2024-01-06T12:52:53;8.80;1.00
780;DHT22;373;49.342;8.146;2024-01-06T12:55:20;8.90;1.00
780;DHT22;373;49.342;8.146;2024-01-06T12:57:49;8.90;1.00
780;DHT22;373;49.342;8.146;2024-01-06T13:00:17;8.80;1.00
780;DHT22;373;49.342;8.146;2024-01-06T13:02:44;8.60;1.00
780;DHT22;373;49.342;8.146;2024-01-06T13:05:11;8.40;1.00
780;DHT22;373;49.342;8.146;2024-01-06T13:07:39;8.50;1.00
780;DHT22;373;49.342;8.146;2024-01-06T13:10:07;8.50;1.00
780;DHT22;373;49.342;8.146;2024-01-06T13:12:34;8.40;1.00
780;DHT22;373;49.342;8.146;2024-01-06T13:15:03;8.70;1.00
780;DHT22;373;49.342;8.146;2024-01-06T13:17:31;8.60;1.00
780;DHT22;373;49.342;8.146;2024-01-06T13:19:58;8.70;1.00
780;DHT22;373;49.342;8.146;2024-01-06T13:22:25;8.90;1.00
780;DHT22;373;49.342;8.146;2024-01-06T13:24:53;9.00;99.90
780;DHT22;373;49.342;8.146;2024-01-06T13:27:20;8.90;99.90
780;DHT22;373;49.342;8.146;2024-01-06T13:29:47;9.00;1.00
780;DHT22;373;49.342;8.146;2024-01-06T13:32:16;8.90;1.00
780;DHT22;373;49.342;8.146;2024-01-06T13:34:45;8.80;1.00
780;DHT22;373;49.342;8.146;2024-01-06T13:37:12;8.80;1.00
780;DHT22;373;49.342;8.146;2024-01-06T13:39:39;9.00;1.00
780;DHT22;373;49.342;8.146;2024-01-06T13:42:06;9.10;99.90
780;DHT22;373;49.342;8.146;2024-01-06T13:44:33;8.90;99.90
780;DHT22;373;49.342;8.146;2024-01-06T13:47:00;9.00;1.00
780;DHT22;373;49.342;8.146;2024-01-06T13:49:29;9.20;99.90
780;DHT22;373;49.342;8.146;2024-01-06T13:51:56;8.90;1.00
780;DHT22;373;49.342;8.146;2024-01-06T13:54:23;8.90;99.90
780;DHT22;373;49.342;8.146;2024-01-06T13:56:50;8.70;99.90
780;DHT22;373;49.342;8.146;2024-01-06T13:59:17;8.60;1.00
780;DHT22;373;49.342;8.146;2024-01-06T14:01:45;8.70;1.00
780;DHT22;373;49.342;8.146;2024-01-06T14:04:12;8.80;99.90
780;DHT22;373;49.342;8.146;2024-01-06T14:06:40;8.80;1.00
780;DHT22;373;49.342;8.146;2024-01-06T14:09:07;9.00;1.00
780;DHT22;373;49.342;8.146;2024-01-06T14:11:35;9.00;99.90
780;DHT22;373;49.342;8.146;2024-01-06T14:14:02;8.90;99.90
780;DHT22;373;49.342;8.146;2024-01-06T14:16:30;8.70;99.90
780;DHT22;373;49.342;8.146;2024-01-06T14:18:58;8.80;99.90
780;DHT22;373;49.342;8.146;2024-01-06T14:21:25;8.80;99.90
780;DHT22;373;49.342;8.146;2024-01-06T14:23:55;8.90;99.90
780;DHT22;373;49.342;8.146;2024-01-06T14:26:22;9.00;99.90
780;DHT22;373;49.342;8.146;2024-01-06T14:28:49;9.10;99.90
780;DHT22;373;49.342;8.146;2024-01-06T14:31:16;9.10;99.90
780;DHT22;373;49.342;8.146;2024-01-06T14:33:44;8.80;99.90
780;DHT22;373;49.342;8.146;2024-01-06T14:36:11;8.60;1.00
780;DHT22;373;49.342;8.146;2024-01-06T14:38:38;8.70;1.00
780;DHT22;373;49.342;8.146;2024-01-06T14:41:07;8.70;99.90
780;DHT22;373;49.342;8.146;2024-01-06T14:43:34;8.60;99.90
780;DHT22;373;49.342;8.146;2024-01-06T14:46:01;8.60;1.00
780;DHT22;373;49.342;8.146;2024-01-06T14:48:28;8.50;1.00
780;DHT22;373;49.342;8.146;2024-01-06T14:50:55;8.60;99.90
780;DHT22;373;49.342;8.146;2024-01-06T14:53:22;8.60;99.90
780;DHT22;373;49.342;8.146;2024-01-06T14:55:49;8.70;99.90
780;DHT22;373;49.342;8.146;2024-01-06T14:58:18;8.90;99.90
780;DHT22;373;49.342;8.146;2024-01-06T15:00:46;8.90;69.90
780;DHT22;373;49.342;8.146;2024-01-06T15:03:13;8.90;1.00
780;DHT22;373;49.342;8.146;2024-01-06T15:05:40;8.90;76.50
780;DHT22;373;49.342;8.146;2024-01-06T15:08:07;9.00;16.80
780;DHT22;373;49.342;8.146;2024-01-06T15:10:34;9.00;1.00
780;DHT22;373;49.342;8.146;2024-01-06T15:13:02;9.00;1.00
780;DHT22;373;49.342;8.146;2024-01-06T15:15:31;8.90;99.90
780;DHT22;373;49.342;8.146;2024-01-06T15:17:58;8.90;1.00
780;DHT22;373;49.342;8.146;2024-01-06T15:20:25;8.90;99.90
780;DHT22;373;49.342;8.146;2024-01-06T15:22:53;9.10;1.00
780;DHT22;373;49.342;8.146;2024-01-06T15:25:20;9.10;99.90
780;DHT22;373;49.342;8.146;2024-01-06T15:27:47;9.20;1.00
780;DHT22;373;49.342;8.146;2024-01-06T15:30:14;9.60;99.90
780;DHT22;373;49.342;8.146;2024-01-06T15:32:45;9.50;1.00
780;DHT22;373;49.342;8.146;2024-01-06T15:35:13;9.20;1.00
780;DHT22;373;49.342;8.146;2024-01-06T15:37:40;9.20;1.00
780;DHT22;373;49.342;8.146;2024-01-06T15:40:07;9.30;1.00
780;DHT22;373;49.342;8.146;2024-01-06T15:42:35;9.20;99.90
780;DHT22;373;49.342;8.146;2024-01-06T15:45:02;9.00;1.00
780;DHT22;373;49.342;8.146;2024-01-06T15:47:29;8.80;99.90
780;DHT22;373;49.342;8.146;2024-01-06T15:49:57;8.60;1.00
780;DHT22;373;49.342;8.146;2024-01-06T15:52:24;8.90;1.00
780;DHT22;373;49.342;8.146;2024-01-06T15:54:51;8.90;99.90
780;DHT22;373;49.342;8.146;2024-01-06T15:57:19;9.00;99.90
780;DHT22;373;49.342;8.146;2024-01-06T15:59:46;9.00;69.60
780;DHT22;373;49.342;8.146;2024-01-06T16:02:13;9.10;88.30
780;DHT22;373;49.342;8.146;2024-01-06T16:04:40;9.10;1.00
780;DHT22;373;49.342;8.146;2024-01-06T16:07:09;9.10;99.90
780;DHT22;373;49.342;8.146;2024-01-06T16:09:36;9.00;1.00
780;DHT22;373;49.342;8.146;2024-01-06T16:12:03;9.10;1.00
780;DHT22;373;49.342;8.146;2024-01-06T16:14:31;9.10;1.00
780;DHT22;373;49.342;8.146;2024-01-06T16:16:59;9.00;1.00
780;DHT22;373;49.342;8.146;2024-01-06T16:19:26;9.00;99.90
780;DHT22;373;49.342;8.146;2024-01-06T16:21:54;9.10;1.00
780;DHT22;373;49.342;8.146;2024-01-06T16:24:23;9.20;1.00
780;DHT22;373;49.342;8.146;2024-01-06T16:26:52;9.60;1.00
780;DHT22;373;49.342;8.146;2024-01-06T16:29:19;9.90;1.00
780;DHT22;373;49.342;8.146;2024-01-06T16:31:46;10.00;1.00
780;DHT22;373;49.342;8.146;2024-01-06T16:34:13;9.80;99.90
780;DHT22;373;49.342;8.146;2024-01-06T16:36:40;9.30;99.90
780;DHT22;373;49.342;8.146;2024-01-06T16:39:08;9.30;99.90
780;DHT22;373;49.342;8.146;2024-01-06T16:41:36;9.20;1.00
780;DHT22;373;49.342;8.146;2024-01-06T16:44:03;9.20;1.00
780;DHT22;373;49.342;8.146;2024-01-06T16:46:31;9.30;1.00
780;DHT22;373;49.342;8.146;2024-01-06T16:48:58;9.20;1.00
780;DHT22;373;49.342;8.146;2024-01-06T16:51:25;8.80;99.90
780;DHT22;373;49.342;8.146;2024-01-06T16:53:52;8.50;1.00
780;DHT22;373;49.342;8.146;2024-01-06T16:56:19;8.50;1.00
780;DHT22;373;49.342;8.146;2024-01-06T16:58:48;8.10;1.00
780;DHT22;373;49.342;8.146;2024-01-06T17:01:15;7.80;22.40
780;DHT22;373;49.342;8.146;2024-01-06T17:03:42;7.50;99.90
780;DHT22;373;49.342;8.146;2024-01-06T17:06:09;7.40;99.90